Time;durP1;ratioP1;P1;durP2;ratioP2;P2;SDS_P1;SDS_P2;PMS_P1;PMS_P2;Temp;Humidity;BMP_temperature;BMP_pressure;BME280_temperature;BME280_humidity;BME280_pressure;Samples;Min_cycle;Max_cycle;Signal;HPM_P1;HPM_P2
2023/01/25 00:01:54;;;;;;;5.45;4.05;;;;;;;16.93;41.11;103729.56;5007833;28;20033;-56
2023/01/25 00:04:20;;;;;;;6.72;4.18;;;;;;;16.96;41.20;103731.22;5007638;28;20063;-57
2023/01/25 00:06:45;;;;;;;6.80;4.40;;;;;;;16.96;41.11;103715.09;5007564;28;20037;-56
2023/01/25 00:09:11;;;;;;;4.57;3.97;;;;;;;16.96;41.16;103715.94;5024494;28;20018;-57
2023/01/25 00:11:37;;;;;;;5.72;3.97;;;;;;;16.95;41.05;103714.22;5027395;28;20033;-56
2023/01/25 00:14:03;;;;;;;5.65;3.80;;;;;;;16.96;41.13;103717.78;5026085;28;20069;-56
2023/01/25 00:16:29;;;;;;;6.32;4.13;;;;;;;16.93;41.28;103713.44;5027036;28;20048;-54
2023/01/25 00:18:54;;;;;;;5.35;3.88;;;;;;;16.95;41.29;103708.84;5027089;28;20037;-57
2023/01/25 00:21:21;;;;;;;5.50;3.65;;;;;;;16.91;41.10;103704.59;5027307;28;20018;-57
2023/01/25 00:23:47;;;;;;;5.13;3.58;;;;;;;16.95;40.99;103708.84;4996349;28;20165;-57
2023/01/25 00:26:12;;;;;;;4.70;3.47;;;;;;;16.93;41.11;103700.00;5007402;28;20074;-56
2023/01/25 00:28:38;;;;;;;4.63;3.92;;;;;;;16.86;41.29;103692.38;5007212;28;20038;-58
2023/01/25 00:31:05;;;;;;;4.93;3.72;;;;;;;16.87;41.02;103694.97;5007469;28;20038;-57
2023/01/25 00:33:36;;;;;;;4.28;3.50;;;;;;;16.93;41.08;103708.06;5007378;28;20034;-55
2023/01/25 00:36:36;;;;;;;4.90;3.88;;;;;;;16.94;41.13;103700.84;5007290;28;20077;-58
2023/01/25 00:39:03;;;;;;;4.65;3.55;;;;;;;16.92;41.17;103698.28;5007365;28;20081;-58
2023/01/25 00:41:28;;;;;;;4.80;4.28;;;;;;;16.92;40.98;103702.78;5006772;28;20092;-57
2023/01/25 00:43:53;;;;;;;4.68;3.83;;;;;;;16.92;41.18;103700.97;5006941;28;20551;-58
2023/01/25 00:46:19;;;;;;;5.05;3.80;;;;;;;16.92;41.31;103695.59;5013550;28;20026;-55
2023/01/25 00:48:44;;;;;;;4.45;3.63;;;;;;;16.92;41.11;103703.66;5018255;28;20081;-57
2023/01/25 00:51:10;;;;;;;5.70;3.58;;;;;;;16.90;40.92;103697.47;5007017;28;20479;-57
2023/01/25 00:53:36;;;;;;;5.35;3.55;;;;;;;16.91;41.23;103699.22;5006992;28;20022;-56
2023/01/25 00:56:01;;;;;;;4.95;3.70;;;;;;;16.91;41.20;103701.91;5006890;28;20030;-58
2023/01/25 00:58:26;;;;;;;4.22;3.00;;;;;;;16.91;41.20;103698.38;5006765;28;20053;-58
2023/01/25 01:00:52;;;;;;;4.70;3.45;;;;;;;16.91;41.08;103696.53;5006834;28;20034;-57
2023/01/25 01:03:17;;;;;;;7.22;3.92;;;;;;;16.90;41.22;103692.09;5006654;28;20034;-58
2023/01/25 01:05:43;;;;;;;4.15;3.30;;;;;;;16.90;41.07;103688.53;5005746;28;20034;-58
2023/01/25 01:08:08;;;;;;;4.35;3.42;;;;;;;16.89;41.20;103693.06;5014941;28;20026;-58
2023/01/25 01:10:33;;;;;;;5.30;3.50;;;;;;;16.89;41.09;103692.19;5026363;28;20030;-57
2023/01/25 01:12:59;;;;;;;4.32;3.28;;;;;;;16.90;41.35;103689.41;5026029;28;20399;-58
2023/01/25 01:15:24;;;;;;;3.72;2.95;;;;;;;16.88;41.34;103683.28;5007995;28;20034;-58
2023/01/25 01:17:49;;;;;;;3.60;3.08;;;;;;;16.85;41.16;103678.06;5025885;28;20030;-58
2023/01/25 01:20:15;;;;;;;5.03;3.58;;;;;;;16.89;41.11;103693.06;5026134;28;20040;-58
2023/01/25 01:22:40;;;;;;;4.35;2.97;;;;;;;16.89;41.33;103687.69;5006964;28;20026;-58
2023/01/25 01:25:06;;;;;;;4.55;2.97;;;;;;;16.89;41.20;103692.19;5006280;28;20117;-58
2023/01/25 01:27:32;;;;;;;4.47;3.75;;;;;;;16.89;41.15;103687.69;5006370;28;20030;-58
2023/01/25 01:29:57;;;;;;;3.90;2.97;;;;;;;16.89;41.17;103689.50;5006068;28;20187;-58
2023/01/25 01:32:22;;;;;;;5.22;3.50;;;;;;;16.88;41.25;103683.28;5006483;28;20058;-58
2023/01/25 01:34:47;;;;;;;5.07;3.40;;;;;;;16.89;41.07;103692.19;5005841;28;20031;-58
2023/01/25 01:37:13;;;;;;;3.83;3.35;;;;;;;16.88;41.35;103680.59;5005953;28;20042;-59
2023/01/25 01:39:38;;;;;;;5.43;3.78;;;;;;;16.88;41.14;103683.28;5005986;28;20030;-58
2023/01/25 01:42:03;;;;;;;4.38;3.20;;;;;;;16.88;41.21;103679.72;5005804;28;20081;-58
2023/01/25 01:44:52;;;;;;;4.35;3.33;;;;;;;16.87;41.23;103673.47;5006107;28;20034;-56
2023/01/25 01:47:28;;;;;;;3.53;3.22;;;;;;;16.88;41.15;103685.09;5019919;28;20030;-58
2023/01/25 01:50:01;;;;;;;4.20;2.92;;;;;;;16.84;41.19;103679.03;5025348;28;20026;-54
2023/01/25 01:52:30;;;;;;;3.50;2.88;;;;;;;16.86;41.35;103682.47;5025527;28;20082;-56
2023/01/25 01:55:07;;;;;;;4.22;3.33;;;;;;;16.86;41.11;103679.78;5007584;28;20093;-58
2023/01/25 01:57:44;;;;;;;3.95;3.38;;;;;;;16.85;41.17;103672.69;5025601;28;20482;-58
2023/01/25 02:00:14;;;;;;;5.10;3.33;;;;;;;16.86;41.18;103674.41;5008039;28;20037;-58
2023/01/25 02:02:40;;;;;;;4.05;3.17;;;;;;;16.86;41.23;103669.03;5025014;28;20026;-57
2023/01/25 02:05:09;;;;;;;4.05;2.90;;;;;;;16.86;41.10;103669.03;5024588;28;20018;-58
2023/01/25 02:07:35;;;;;;;;;;;;;;;16.86;41.31;103665.50;5025390;28;20053;-57
2023/01/25 02:10:03;;;;;;;2.90;2.60;;;;;;;16.85;41.06;103659.25;5024962;28;19913;-57
2023/01/25 02:12:29;;;;;;;3.00;2.70;;;;;;;16.84;41.42;103662.91;5025549;28;20104;-56
2023/01/25 02:14:54;;;;;;;3.42;2.83;;;;;;;16.84;41.24;103651.28;4991245;28;20061;-58
2023/01/25 02:17:29;;;;;;;3.28;2.97;;;;;;;16.83;41.42;103647.75;5019166;28;20030;-58
2023/01/25 02:20:13;;;;;;;3.35;2.80;;;;;;;16.84;41.24;103645.91;5007256;28;20025;-58
2023/01/25 02:22:45;;;;;;;4.07;3.17;;;;;;;16.83;41.24;103650.44;5006037;28;20030;-58
2023/01/25 02:25:12;;;;;;;3.67;2.60;;;;;;;16.83;41.21;103655.81;4990430;28;20054;-56
2023/01/25 02:27:41;;;;;;;3.88;2.72;;;;;;;16.83;41.31;103654.94;4990742;28;20105;-56
2023/01/25 02:30:07;;;;;;;4.07;3.40;;;;;;;16.82;41.21;103647.81;4990243;28;20033;-57
2023/01/25 02:32:32;;;;;;;3.20;2.83;;;;;;;16.82;41.19;103656.75;5025235;28;20037;-55
2023/01/25 02:34:58;;;;;;;4.25;3.15;;;;;;;16.82;41.33;103648.72;5024801;28;20051;-57
2023/01/25 02:37:23;;;;;;;3.90;3.50;;;;;;;16.81;41.22;103651.47;5025061;28;20094;-57
2023/01/25 02:39:49;;;;;;;3.67;3.28;;;;;;;16.73;41.10;103639.31;5024731;28;20018;-57
2023/01/25 02:42:15;;;;;;;4.18;3.30;;;;;;;16.82;41.25;103647.81;5024753;28;20042;-55
2023/01/25 02:44:41;;;;;;;3.88;3.08;;;;;;;16.81;41.21;103646.94;5024657;28;20109;-57
2023/01/25 02:47:06;;;;;;;5.00;3.17;;;;;;;16.82;41.25;103646.03;5007473;28;20028;-57
2023/01/25 02:49:36;;;;;;;3.90;2.97;;;;;;;16.82;41.27;103645.13;5024819;28;20033;-58
2023/01/25 02:52:03;;;;;;;3.17;2.85;;;;;;;16.79;41.14;103637.25;5024768;28;20034;-57
2023/01/25 02:54:28;;;;;;;4.05;3.17;;;;;;;16.81;41.18;103640.72;5024937;28;20026;-58
2023/01/25 02:56:54;;;;;;;3.38;3.08;;;;;;;16.81;41.18;103638.03;5024656;28;20036;-57
2023/01/25 02:59:19;;;;;;;3.80;2.92;;;;;;;16.80;41.24;103636.31;5024405;28;20441;-57
2023/01/25 03:01:45;;;;;;;2.97;2.35;;;;;;;16.80;41.20;103631.78;5024844;28;20064;-56
2023/01/25 03:04:10;;;;;;;3.85;2.78;;;;;;;16.80;41.17;103631.78;5024461;28;20033;-57
2023/01/25 03:06:36;;;;;;;3.22;2.85;;;;;;;16.80;41.22;103615.66;5024698;28;20030;-56
2023/01/25 03:09:03;;;;;;;3.58;2.95;;;;;;;16.79;41.13;103616.63;5024498;28;20065;-56
2023/01/25 03:11:28;;;;;;;3.65;2.90;;;;;;;16.76;41.02;103614.13;5024843;28;20394;-57
2023/01/25 03:13:54;;;;;;;3.95;2.97;;;;;;;16.79;41.46;103618.47;5024448;28;20493;-58
2023/01/25 03:16:19;;;;;;;3.33;3.03;;;;;;;16.79;41.29;103610.41;5023808;28;20026;-54
2023/01/25 03:18:44;;;;;;;3.45;2.85;;;;;;;16.79;41.10;103613.09;5024502;28;20062;-56
2023/01/25 03:21:15;;;;;;;4.00;3.50;;;;;;;16.78;41.19;103611.31;5017576;28;20025;-58
2023/01/25 03:23:41;;;;;;;3.30;3.00;;;;;;;16.79;41.36;103621.13;5004799;28;20026;-58
2023/01/25 03:26:12;;;;;;;4.45;3.28;;;;;;;16.77;41.27;103613.16;5005075;28;20027;-57
2023/01/25 03:28:39;;;;;;;3.67;3.20;;;;;;;16.77;41.19;103615.84;5017337;28;20025;-56
2023/01/25 03:31:05;;;;;;;3.92;3.10;;;;;;;16.77;41.07;103613.16;5028336;28;20094;-55
2023/01/25 03:33:31;;;;;;;3.33;2.78;;;;;;;16.77;41.10;103613.16;5028054;28;20022;-57
2023/01/25 03:35:56;;;;;;;3.40;2.90;;;;;;;16.77;41.01;103606.91;5027668;28;20044;-55
2023/01/25 03:38:22;;;;;;;3.08;2.70;;;;;;;16.78;41.12;103608.63;5028085;28;20046;-57
2023/01/25 03:40:47;;;;;;;3.60;3.25;;;;;;;16.77;41.21;103610.47;5027942;28;20121;-53
2023/01/25 03:43:13;;;;;;;3.05;2.75;;;;;;;16.76;41.21;103600.69;5028011;28;20026;-56
2023/01/25 03:45:39;;;;;;;4.05;3.28;;;;;;;16.76;41.11;103595.31;5027980;28;20033;-55
2023/01/25 03:48:04;;;;;;;3.80;3.15;;;;;;;16.74;41.22;103590.03;5027703;28;20033;-56
2023/01/25 03:50:29;;;;;;;3.00;2.70;;;;;;;16.74;41.19;103595.41;5027887;28;20053;-55
2023/01/25 03:53:01;;;;;;;3.65;3.25;;;;;;;16.75;41.16;103588.22;5027622;28;20037;-55
2023/01/25 03:55:26;;;;;;;3.15;2.85;;;;;;;16.68;41.22;103578.72;5027773;28;20691;-56
2023/01/25 03:57:51;;;;;;;3.83;3.08;;;;;;;16.74;41.11;103581.97;5027163;28;20026;-54
2023/01/25 04:00:18;;;;;;;3.65;2.97;;;;;;;16.73;41.23;103580.22;5027275;28;20033;-57
2023/01/25 04:02:44;;;;;;;3.85;2.70;;;;;;;16.66;41.19;103564.53;5027636;28;20441;-56
2023/01/25 04:05:10;;;;;;;3.17;2.88;;;;;;;16.72;41.24;103573.13;5027291;28;20029;-57
2023/01/25 04:07:35;;;;;;;3.10;2.80;;;;;;;16.72;41.10;103566.84;5027356;28;20032;-55
2023/01/25 04:10:00;;;;;;;3.45;2.97;;;;;;;16.71;41.22;103560.63;5027216;28;20097;-59
2023/01/25 04:12:25;;;;;;;3.20;2.90;;;;;;;16.72;41.18;103558.78;5027508;28;20030;-58
2023/01/25 04:14:51;;;;;;;3.30;3.00;;;;;;;16.71;41.19;103565.13;5026189;28;20379;-58
2023/01/25 04:17:16;;;;;;;3.35;3.00;;;;;;;16.73;40.99;103568.59;5027385;28;20034;-55
2023/01/25 04:19:41;;;;;;;3.58;2.72;;;;;;;16.71;41.12;103557.06;5027277;28;20026;-56
2023/01/25 04:22:07;;;;;;;3.53;2.70;;;;;;;16.71;41.18;103560.63;5012703;28;20026;-57
2023/01/25 04:24:33;;;;;;;3.85;2.95;;;;;;;16.72;40.73;103553.41;5007731;28;20041;-55
2023/01/25 04:26:58;;;;;;;3.70;2.85;;;;;;;16.71;40.98;103551.69;5007462;28;20031;-55
2023/01/25 04:29:23;;;;;;;3.55;3.10;;;;;;;16.71;41.09;103554.38;5025657;28;20085;-57
2023/01/25 04:31:48;;;;;;;3.78;3.20;;;;;;;16.71;41.02;103554.38;5027036;28;20025;-54
2023/01/25 04:34:14;;;;;;;3.80;3.13;;;;;;;16.70;41.12;103548.16;5026638;28;20030;-57
2023/01/25 04:36:39;;;;;;;3.72;3.30;;;;;;;16.69;41.04;103553.59;5026477;28;20065;-55
2023/01/25 04:39:04;;;;;;;3.72;3.20;;;;;;;16.70;41.11;103549.97;5026903;28;20026;-54
2023/01/25 04:41:29;;;;;;;3.70;3.15;;;;;;;16.70;41.05;103549.97;5026991;28;20050;-55
2023/01/25 04:43:55;;;;;;;4.10;3.28;;;;;;;16.69;41.19;103548.22;5026796;28;20041;-56
2023/01/25 04:46:20;;;;;;;3.72;3.22;;;;;;;16.70;41.31;103544.59;5027119;28;20053;-55
2023/01/25 04:48:45;;;;;;;3.92;3.00;;;;;;;16.69;41.14;103545.53;5026783;28;20541;-56
2023/01/25 04:51:12;;;;;;;3.75;3.45;;;;;;;16.70;41.05;103547.28;5026700;28;20036;-55
2023/01/25 04:53:37;;;;;;;3.28;2.97;;;;;;;16.69;41.00;103549.09;5026753;28;20055;-55
2023/01/25 04:56:03;;;;;;;3.45;3.13;;;;;;;16.66;41.10;103549.28;5009078;28;20030;-56
2023/01/25 04:58:28;;;;;;;3.00;2.67;;;;;;;16.69;41.04;103548.22;5026369;28;20033;-56
2023/01/25 05:00:53;;;;;;;4.00;3.22;;;;;;;16.69;40.98;103543.75;5026502;28;20133;-57
2023/01/25 05:03:19;;;;;;;3.38;2.97;;;;;;;16.68;40.89;103550.03;5026574;28;20068;-56
2023/01/25 05:05:46;;;;;;;4.63;2.95;;;;;;;16.69;40.99;103545.53;5026205;28;20036;-57
2023/01/25 05:08:11;;;;;;;3.45;3.15;;;;;;;16.69;40.91;103542.84;5025734;28;20038;-56
2023/01/25 05:10:36;;;;;;;3.47;3.17;;;;;;;16.68;40.82;103538.44;5026428;28;20026;-57
2023/01/25 05:13:01;;;;;;;4.25;3.45;;;;;;;16.67;40.92;103544.78;5026287;28;20727;-57
2023/01/25 05:15:27;;;;;;;3.95;3.30;;;;;;;16.67;40.87;103528.66;5025596;28;20026;-56
2023/01/25 05:17:52;;;;;;;3.65;3.10;;;;;;;16.67;40.94;103520.59;5026226;28;20037;-53
2023/01/25 05:20:17;;;;;;;3.33;3.03;;;;;;;16.67;40.91;103525.97;5026290;28;20081;-57
2023/01/25 05:22:43;;;;;;;3.30;3.00;;;;;;;16.67;41.27;103523.28;5006740;28;20038;-58
2023/01/25 05:26:59;;;;;;;4.00;3.60;;;;;;;16.64;41.09;103521.63;5006512;28;20030;-57
2023/01/25 05:27:53;;;;;;;3.55;2.85;;;;;;;16.66;40.88;103525.09;5006220;28;20064;-56
2023/01/25 05:30:19;;;;;;;4.00;3.60;;;;;;;16.65;41.02;103522.50;5006292;28;20030;-55
2023/01/25 05:32:44;;;;;;;4.30;3.65;;;;;;;16.59;40.90;103518.34;5006378;28;20027;-57
2023/01/25 05:35:09;;;;;;;4.43;3.47;;;;;;;16.65;40.96;103531.44;5006076;28;20038;-56
2023/01/25 05:37:34;;;;;;;4.28;3.80;;;;;;;16.63;40.95;103533.34;5019716;28;20085;-56
2023/01/25 05:40:00;;;;;;;3.40;3.03;;;;;;;16.58;40.92;103522.00;5025826;28;20049;-56
2023/01/25 05:42:25;;;;;;;3.90;3.50;;;;;;;16.66;40.82;103529.63;5025769;28;20046;-56
2023/01/25 05:44:50;;;;;;;4.10;3.42;;;;;;;16.64;41.08;103532.38;5025447;28;20018;-57
2023/01/25 05:47:16;;;;;;;3.50;3.05;;;;;;;16.58;40.84;103529.19;5025749;28;20411;-54
2023/01/25 05:49:41;;;;;;;4.07;3.20;;;;;;;16.65;40.88;103538.59;5025614;28;20113;-55
2023/01/25 05:52:12;;;;;;;4.32;3.53;;;;;;;16.65;40.90;103535.91;5025269;28;20085;-57
2023/01/25 05:54:37;;;;;;;4.00;3.58;;;;;;;16.64;40.69;103532.38;5008030;28;20026;-56
2023/01/25 05:57:02;;;;;;;4.25;3.45;;;;;;;16.65;40.79;103535.91;5025601;28;20030;-56
2023/01/25 05:59:28;;;;;;;4.03;3.42;;;;;;;16.64;40.82;103532.38;5025309;28;20064;-57
2023/01/25 06:01:53;;;;;;;3.08;2.70;;;;;;;16.65;40.88;103538.59;5025275;28;20034;-57
2023/01/25 06:04:18;;;;;;;3.60;3.13;;;;;;;16.64;40.71;103540.44;5024764;28;20056;-58
2023/01/25 06:06:43;;;;;;;3.80;3.42;;;;;;;16.64;40.94;103535.06;5025179;28;20026;-55
2023/01/25 06:09:10;;;;;;;3.40;3.10;;;;;;;16.63;40.87;103536.03;5023078;28;20034;-56
2023/01/25 06:11:36;;;;;;;3.65;3.35;;;;;;;16.65;40.84;103530.53;5025316;28;20030;-58
2023/01/25 06:14:01;;;;;;;2.75;2.55;;;;;;;16.63;40.91;103529.78;5024232;28;20028;-54
2023/01/25 06:16:26;;;;;;;3.72;3.20;;;;;;;16.64;40.68;103526.13;5025260;28;20109;-56
2023/01/25 06:18:51;;;;;;;3.35;2.85;;;;;;;16.63;40.75;103533.34;5024933;28;20033;-54
2023/01/25 06:21:17;;;;;;;3.20;2.90;;;;;;;16.61;40.81;103534.38;5017337;28;20038;-58
2023/01/25 06:23:42;;;;;;;3.78;3.45;;;;;;;16.64;40.84;103539.56;5005459;28;20042;-56
2023/01/25 06:26:11;;;;;;;5.03;3.85;;;;;;;16.64;40.77;103539.56;4995963;28;20032;-57
2023/01/25 06:28:37;;;;;;;3.88;3.40;;;;;;;16.64;40.86;103545.81;5017526;28;20134;-57
2023/01/25 06:31:07;;;;;;;3.97;3.58;;;;;;;16.64;40.84;103540.44;5019354;28;20034;-57
2023/01/25 06:33:32;;;;;;;3.75;3.33;;;;;;;16.65;41.06;103538.59;5019071;28;20033;-51
2023/01/25 06:36:02;;;;;;;3.83;3.40;;;;;;;16.65;41.09;103536.81;5022318;28;20033;-52
2023/01/25 06:38:27;;;;;;;4.75;4.28;;;;;;;16.65;40.99;103536.81;5019465;28;20026;-58
2023/01/25 06:40:52;;;;;;;3.47;3.17;;;;;;;16.66;41.14;103530.47;5015459;28;20045;-52
2023/01/25 06:43:18;;;;;;;3.70;3.40;;;;;;;16.67;40.98;103531.34;5016180;28;20032;-56
2023/01/25 06:45:43;;;;;;;4.53;4.00;;;;;;;16.66;41.21;103522.41;5015677;28;20037;-52
2023/01/25 06:48:08;;;;;;;3.90;3.50;;;;;;;16.66;41.14;103530.47;5015116;28;20017;-58
2023/01/25 06:50:33;;;;;;;3.88;3.47;;;;;;;16.67;41.06;103525.97;5017004;28;20047;-52
2023/01/25 06:52:59;;;;;;;3.65;3.22;;;;;;;16.64;41.15;103518.94;5022952;28;20446;-56
2023/01/25 06:55:24;;;;;;;4.70;4.00;;;;;;;16.67;41.12;103524.13;5022295;28;20061;-52
2023/01/25 06:57:49;;;;;;;3.63;3.33;;;;;;;16.66;40.92;103525.09;5020708;28;20033;-57
2023/01/25 07:00:15;;;;;;;4.05;3.40;;;;;;;16.67;41.21;103521.47;5020289;28;20026;-54
2023/01/25 07:02:41;;;;;;;4.20;3.80;;;;;;;16.64;41.29;103518.06;5018092;28;20057;-56
2023/01/25 07:05:06;;;;;;;4.75;3.60;;;;;;;16.69;41.50;103535.69;5013768;28;20026;-55
2023/01/25 07:07:31;;;;;;;4.35;3.53;;;;;;;16.60;41.84;103511.16;5017544;28;20030;-54
2023/01/25 07:09:59;;;;;;;3.97;3.58;;;;;;;16.70;41.60;103528.47;5022166;28;20056;-54
2023/01/25 07:12:24;;;;;;;4.13;3.72;;;;;;;16.73;41.72;103525.63;5015010;28;20021;-57
2023/01/25 07:14:50;;;;;;;4.45;4.05;;;;;;;16.72;41.55;103519.38;5017450;28;20032;-54
2023/01/25 07:17:15;;;;;;;4.05;3.65;;;;;;;16.73;41.70;103515.75;5020723;28;20026;-54
2023/01/25 07:19:40;;;;;;;4.18;3.78;;;;;;;16.73;41.94;103517.56;5019015;28;20127;-55
2023/01/25 07:22:06;;;;;;;4.20;3.80;;;;;;;16.72;41.98;103510.44;5023144;28;20045;-57
2023/01/25 07:24:31;;;;;;;6.88;3.70;;;;;;;16.75;41.93;103512.97;5016011;28;20072;-57
2023/01/25 07:26:56;;;;;;;4.40;4.00;;;;;;;16.73;41.98;103510.38;5019522;28;20034;-52
2023/01/25 07:29:21;;;;;;;4.30;3.90;;;;;;;16.75;41.93;103504.91;5022097;28;20038;-57
2023/01/25 07:31:47;;;;;;;4.60;4.10;;;;;;;16.74;42.10;103495.13;5022903;28;20057;-55
2023/01/25 07:34:12;;;;;;;5.78;3.97;;;;;;;16.72;42.06;103500.59;5023158;28;20030;-58
2023/01/25 07:36:38;;;;;;;9.43;3.85;;;;;;;16.69;41.92;103490.00;5019731;28;20325;-60
2023/01/25 07:39:04;;;;;;;4.43;3.78;;;;;;;16.79;41.81;103500.25;5008628;28;20086;-60
2023/01/25 07:41:29;;;;;;;4.38;3.78;;;;;;;16.80;41.65;103500.13;5022931;28;20080;-60
2023/01/25 07:43:54;;;;;;;5.18;3.70;;;;;;;16.81;41.73;103495.63;5019791;28;20093;-57
2023/01/25 07:46:20;;;;;;;4.13;3.72;;;;;;;16.80;41.65;103485.84;5026924;28;20096;-57
2023/01/25 07:48:47;;;;;;;7.22;3.70;;;;;;;16.84;41.66;103493.63;5026649;28;20037;-57
2023/01/25 07:51:22;;;;;;;4.32;3.78;;;;;;;16.88;41.77;103497.84;5025651;28;20048;-56
2023/01/25 07:53:55;;;;;;;4.68;3.90;;;;;;;16.90;41.76;103495.06;5025526;28;20034;-55
2023/01/25 07:56:22;;;;;;;4.70;4.07;;;;;;;16.90;41.71;103490.56;5026857;28;20033;-57
2023/01/25 07:58:47;;;;;;;4.60;3.92;;;;;;;16.91;41.81;103495.00;5026564;28;20030;-58
2023/01/25 08:01:14;;;;;;;4.35;3.90;;;;;;;16.90;41.65;103490.56;5021339;28;20034;-58
2023/01/25 08:03:40;;;;;;;4.63;4.00;;;;;;;16.92;41.68;103488.66;5026854;28;20018;-54
2023/01/25 08:06:06;;;;;;;4.25;3.85;;;;;;;16.93;41.75;103482.31;5026152;28;20038;-56
2023/01/25 08:08:33;;;;;;;4.85;3.78;;;;;;;16.92;41.75;103482.41;5024149;28;20030;-53
2023/01/25 08:11:00;;;;;;;4.72;4.10;;;;;;;16.94;41.58;103491.22;5027175;28;20030;-55
2023/01/25 08:13:25;;;;;;;4.57;3.80;;;;;;;16.93;41.70;103485.00;5026335;28;20030;-57
2023/01/25 08:15:54;;;;;;;4.18;3.60;;;;;;;16.95;41.40;103482.25;5026981;28;20092;-57
2023/01/25 08:18:19;;;;;;;4.30;3.30;;;;;;;16.95;41.34;103482.25;5027287;28;20085;-56
2023/01/25 08:20:44;;;;;;;5.68;3.95;;;;;;;16.83;41.25;103458.78;5023988;28;20045;-57
2023/01/25 08:23:10;;;;;;;4.35;3.70;;;;;;;16.94;41.10;103478.66;5007476;28;20452;-58
2023/01/25 08:25:35;;;;;;;4.35;3.95;;;;;;;16.97;41.16;103477.63;5024630;28;20042;-55
2023/01/25 08:28:00;;;;;;;4.38;3.85;;;;;;;16.97;41.09;103477.63;5027028;28;20109;-57
2023/01/25 08:30:25;;;;;;;6.85;4.22;;;;;;;16.97;40.92;103473.09;5026905;28;20030;-56
2023/01/25 08:32:51;;;;;;;5.40;4.30;;;;;;;16.96;40.88;103470.53;5026912;28;20078;-56
2023/01/25 08:35:16;;;;;;;4.65;3.70;;;;;;;16.96;40.64;103473.22;5026748;28;20034;-57
2023/01/25 08:37:41;;;;;;;5.32;3.90;;;;;;;16.97;40.88;103478.47;5026595;28;20042;-58
2023/01/25 08:40:07;;;;;;;4.38;3.97;;;;;;;16.95;40.85;103472.34;5026008;28;20117;-53
2023/01/25 08:42:32;;;;;;;4.65;4.05;;;;;;;16.94;40.74;103472.41;5026157;28;20038;-58
2023/01/25 08:44:57;;;;;;;5.40;4.55;;;;;;;16.95;40.59;103469.66;5026558;28;20022;-58
2023/01/25 08:47:23;;;;;;;5.00;4.50;;;;;;;16.93;40.67;103463.50;5026944;28;20448;-57
2023/01/25 08:49:49;;;;;;;5.00;4.22;;;;;;;16.97;40.58;103464.19;5026577;28;20041;-56
2023/01/25 08:52:15;;;;;;;5.38;4.10;;;;;;;16.96;40.32;103468.69;5026334;28;20060;-56
2023/01/25 08:54:43;;;;;;;4.78;4.30;;;;;;;16.95;40.23;103464.28;5019391;28;20026;-58
2023/01/25 08:57:08;;;;;;;4.97;4.43;;;;;;;16.95;40.47;103458.91;5016488;28;20037;-57
2023/01/25 08:59:33;;;;;;;5.70;4.43;;;;;;;16.95;40.34;103456.22;5013171;28;20026;-56
2023/01/25 09:01:59;;;;;;;4.65;4.20;;;;;;;16.98;40.27;103465.91;5022388;28;20029;-58
2023/01/25 09:04:27;;;;;;;4.22;3.83;;;;;;;16.96;40.19;103460.63;5009976;28;20234;-57
2023/01/25 09:06:52;;;;;;;6.33;5.20;;;;;;;16.97;40.31;103461.50;5026267;28;20091;-58
2023/01/25 09:09:18;;;;;;;5.30;4.68;;;;;;;16.97;40.26;103453.44;5026014;28;20120;-59
2023/01/25 09:11:43;;;;;;;5.13;4.63;;;;;;;16.97;40.26;103448.06;5026177;28;20053;-58
2023/01/25 09:14:08;;;;;;;6.15;4.82;;;;;;;16.96;40.15;103444.50;5026376;28;20030;-59
2023/01/25 09:16:34;;;;;;;6.70;5.25;;;;;;;16.96;40.10;103440.97;5026604;28;20057;-59
2023/01/25 09:19:01;;;;;;;5.90;4.80;;;;;;;16.92;39.89;103436.72;5026591;28;20025;-59
2023/01/25 09:21:27;;;;;;;5.68;5.03;;;;;;;16.91;40.03;103427.81;5017618;28;20109;-59
2023/01/25 09:23:53;;;;;;;5.18;4.68;;;;;;;16.97;39.98;103430.09;5006912;28;20219;-58
2023/01/25 09:26:19;;;;;;;5.40;4.90;;;;;;;16.96;39.88;103435.59;5006238;28;20030;-57
2023/01/25 09:28:49;;;;;;;7.10;5.70;;;;;;;16.93;40.02;103425.00;5006379;28;20030;-52
2023/01/25 09:31:15;;;;;;;6.03;5.47;;;;;;;16.96;40.08;103431.06;5006255;28;20031;-58
2023/01/25 09:33:41;;;;;;;5.72;5.15;;;;;;;16.97;39.93;103431.94;5006092;28;20030;-57
2023/01/25 09:36:06;;;;;;;5.75;5.10;;;;;;;16.97;39.91;103434.63;5006138;28;20030;-59
2023/01/25 09:38:32;;;;;;;5.55;5.05;;;;;;;16.98;39.72;103439.88;5017828;28;20037;-60
2023/01/25 09:41:06;;;;;;;5.38;4.88;;;;;;;16.99;39.66;103438.06;5025435;28;20052;-60
2023/01/25 09:43:49;;;;;;;6.18;5.55;;;;;;;16.98;39.66;103436.34;5025578;28;20030;-58
2023/01/25 09:46:44;;;;;;;5.88;5.10;;;;;;;16.96;39.65;103430.22;5008355;28;20029;-59
2023/01/25 09:49:19;;;;;;;6.28;5.68;;;;;;;16.96;39.72;103433.75;5016391;28;20038;-58
2023/01/25 09:52:22;;;;;;;5.75;5.25;;;;;;;16.98;39.75;103436.34;5007673;28;20057;-57
2023/01/25 09:54:49;;;;;;;5.38;4.88;;;;;;;16.96;39.61;103420.31;5025635;28;20387;-57
2023/01/25 09:57:25;;;;;;;5.65;5.15;;;;;;;16.96;39.80;103425.69;5016311;28;20026;-58
2023/01/25 09:59:52;;;;;;;5.55;5.05;;;;;;;16.91;39.69;103417.06;4988232;28;20432;-58
2023/01/25 10:02:42;;;;;;;5.65;5.15;;;;;;;16.94;39.56;103430.28;4988441;28;20056;-58
2023/01/25 10:05:13;;;;;;;5.68;5.10;;;;;;;16.94;39.59;103426.75;4988323;28;20032;-60
2023/01/25 10:07:57;;;;;;;5.97;5.32;;;;;;;16.93;39.63;103420.50;4991996;28;20038;-60
2023/01/25 10:10:28;;;;;;;5.55;5.05;;;;;;;16.94;39.49;103432.09;5025365;28;20084;-60
2023/01/25 10:12:53;;;;;;;6.43;5.82;;;;;;;16.94;39.50;103430.28;5025039;28;20406;-60
2023/01/25 10:15:22;;;;;;;5.63;5.03;;;;;;;16.95;39.48;103425.81;5025219;28;20050;-60
2023/01/25 10:18:00;;;;;;;6.05;5.45;;;;;;;16.95;39.51;103413.22;5004024;28;20036;-60
2023/01/25 10:20:37;;;;;;;6.13;5.53;;;;;;;16.97;39.57;103410.44;5023113;28;20040;-60
2023/01/25 10:23:29;;;;;;;5.50;5.00;;;;;;;16.98;39.31;103406.78;5004867;28;20030;-61
2023/01/25 10:25:58;;;;;;;6.57;5.55;;;;;;;16.97;39.38;103403.22;4993622;28;20113;-61
2023/01/25 10:28:29;;;;;;;6.50;5.90;;;;;;;16.97;39.48;103397.00;5004877;28;20033;-60
2023/01/25 10:30:54;;;;;;;6.20;5.60;;;;;;;16.98;39.19;103390.66;5018019;28;20030;-60
2023/01/25 10:33:20;;;;;;;7.32;5.70;;;;;;;16.97;39.35;103388.94;5024385;28;20032;-60
2023/01/25 10:35:48;;;;;;;5.95;5.35;;;;;;;16.96;39.27;103380.00;5024631;28;20078;-61
2023/01/25 10:38:26;;;;;;;6.03;5.18;;;;;;;16.96;39.34;103371.09;5020774;28;20058;-61
2023/01/25 10:41:01;;;;;;;12.73;5.53;;;;;;;16.97;39.28;103373.66;5004475;28;20073;-60
2023/01/25 10:43:27;;;;;;;6.72;5.80;;;;;;;16.97;39.67;103364.75;5007993;28;20014;-58
2023/01/25 10:45:52;;;;;;;6.10;5.22;;;;;;;16.97;39.60;103360.22;5016162;28;20038;-59
2023/01/25 10:48:21;;;;;;;5.55;5.05;;;;;;;16.71;39.70;103313.47;5010020;28;20053;-60
2023/01/25 10:50:49;;;;;;;6.38;5.68;;;;;;;16.93;39.79;103353.31;5006392;28;20033;-60
2023/01/25 10:53:38;;;;;;;5.93;5.33;;;;;;;16.94;39.76;103348.81;5010721;28;20026;-60
2023/01/25 10:56:09;;;;;;;6.65;5.95;;;;;;;16.92;39.92;103345.38;5013843;28;20038;-56
2023/01/25 10:58:37;;;;;;;6.00;5.38;;;;;;;16.92;39.75;103346.22;5010037;28;20026;-60
2023/01/25 11:01:33;;;;;;;6.55;5.93;;;;;;;16.92;39.74;103337.31;5012637;28;20014;-57
2023/01/25 11:03:59;;;;;;;5.35;4.82;;;;;;;16.91;39.68;103332.91;4996134;28;20104;-60
2023/01/25 11:06:36;;;;;;;6.25;5.13;;;;;;;16.93;39.75;103331.81;5003608;28;20022;-58
2023/01/25 11:09:21;;;;;;;5.90;5.30;;;;;;;16.96;39.71;103314.66;5018875;28;20015;-60
2023/01/25 11:11:54;;;;;;;5.78;5.28;;;;;;;17.00;39.33;103305.44;5009009;28;20488;-58
2023/01/25 11:14:22;;;;;;;6.13;5.28;;;;;;;17.01;39.21;103300.91;5008161;28;20027;-60
2023/01/25 11:16:48;;;;;;;5.82;5.32;;;;;;;17.00;39.40;103300.06;5007560;28;20050;-60
2023/01/25 11:19:33;;;;;;;6.28;5.40;;;;;;;17.01;39.50;103295.53;5017796;28;20030;-60
2023/01/25 11:22:00;;;;;;;6.07;5.47;;;;;;;16.97;39.53;103298.41;5006996;28;20038;-58
2023/01/25 11:24:31;;;;;;;5.60;5.10;;;;;;;16.91;39.68;103277.31;5017475;28;20427;-60
2023/01/25 11:27:24;;;;;;;6.18;5.40;;;;;;;16.97;39.77;103279.59;5014609;28;20048;-60